createdAt,value
2023-02-11T00:00:15.677Z,-4.50
2023-02-11T00:02:42.485Z,-4.60
2023-02-11T00:05:09.142Z,-4.60
2023-02-11T00:07:35.860Z,-4.60
2023-02-11T00:10:03.104Z,-4.60
2023-02-11T00:12:29.731Z,-4.70
2023-02-11T00:14:57.040Z,-4.70
2023-02-11T00:17:23.749Z,-4.60
2023-02-11T00:19:50.887Z,-4.60
2023-02-11T00:22:17.630Z,-4.60
2023-02-11T00:24:44.681Z,-4.60
2023-02-11T00:27:11.594Z,-4.60
2023-02-11T00:29:38.947Z,-4.60
2023-02-11T00:32:06.055Z,-4.70
2023-02-11T00:34:33.132Z,-4.70
2023-02-11T00:36:59.811Z,-4.60
2023-02-11T00:39:26.484Z,-4.70
2023-02-11T00:41:53.101Z,-4.70
2023-02-11T00:44:19.742Z,-4.60
2023-02-11T00:46:46.399Z,-4.70
2023-02-11T00:49:13.354Z,-4.70
2023-02-11T00:51:40.074Z,-4.70
2023-02-11T00:54:06.730Z,-4.70
2023-02-11T00:56:33.401Z,-4.70
2023-02-11T00:59:00.287Z,-4.70
2023-02-11T01:01:27.278Z,-4.80
2023-02-11T01:03:54.016Z,-4.70
2023-02-11T01:06:20.681Z,-4.80
2023-02-11T01:08:47.276Z,-4.80
2023-02-11T01:11:15.353Z,-4.80
2023-02-11T01:13:42.716Z,-4.80
2023-02-11T01:16:10.402Z,-4.90
2023-02-11T01:18:37.310Z,-4.90
2023-02-11T01:21:04.184Z,-4.90
2023-02-11T01:23:30.836Z,-4.90
2023-02-11T01:25:57.499Z,-4.90
2023-02-11T01:28:25.943Z,-4.90
2023-02-11T01:30:53.230Z,-4.90
2023-02-11T01:33:20.242Z,-5.00
2023-02-11T01:35:46.882Z,-5.00
2023-02-11T01:38:20.797Z,-5.00
2023-02-11T01:40:52.548Z,-4.90
2023-02-11T01:43:19.525Z,-5.00
2023-02-11T01:45:49.533Z,-5.00
2023-02-11T01:48:22.267Z,-5.00
2023-02-11T01:50:50.175Z,-5.00
2023-02-11T01:53:36.102Z,-5.00
2023-02-11T01:56:22.197Z,-5.20
2023-02-11T01:58:48.936Z,-5.10
2023-02-11T02:01:17.590Z,-5.10
2023-02-11T02:03:45.904Z,-5.10
2023-02-11T02:06:12.558Z,-5.00
2023-02-11T02:08:42.566Z,-5.00
2023-02-11T02:11:09.648Z,-5.00
2023-02-11T02:13:36.354Z,-4.90
2023-02-11T02:16:09.818Z,-5.00
2023-02-11T02:18:55.054Z,-5.00
2023-02-11T02:21:40.316Z,-5.00
2023-02-11T02:24:31.574Z,-5.00
2023-02-11T02:27:16.486Z,-5.00
2023-02-11T02:30:01.687Z,-5.00
2023-02-11T02:32:28.337Z,-5.00
2023-02-11T02:35:10.766Z,-5.00
2023-02-11T02:37:51.672Z,-4.90
2023-02-11T02:40:25.037Z,-4.90
2023-02-11T02:42:52.690Z,-4.90
2023-02-11T02:45:19.650Z,-4.80
2023-02-11T02:47:46.655Z,-4.80
2023-02-11T02:50:15.373Z,-4.80
2023-02-11T02:53:00.564Z,-4.80
2023-02-11T02:55:43.339Z,-4.80
2023-02-11T02:58:18.817Z,-4.80
2023-02-11T03:01:00.699Z,-4.80
2023-02-11T03:03:27.476Z,-4.70
2023-02-11T03:05:57.181Z,-4.60
2023-02-11T03:08:32.419Z,-4.70
2023-02-11T03:11:00.637Z,-4.60
2023-02-11T03:13:29.939Z,-4.60
2023-02-11T03:15:57.765Z,-4.60
2023-02-11T03:18:26.098Z,-4.60
2023-02-11T03:20:55.496Z,-4.50
2023-02-11T03:23:25.320Z,-4.60
2023-02-11T03:25:55.615Z,-4.50
2023-02-11T03:28:22.365Z,-4.30
2023-02-11T03:30:56.044Z,-4.30
2023-02-11T03:33:26.557Z,-4.30
2023-02-11T03:36:15.165Z,-4.20
2023-02-11T03:38:49.914Z,-4.10
2023-02-11T03:41:18.013Z,-4.10
2023-02-11T03:43:46.340Z,-4.00
2023-02-11T03:46:15.177Z,-3.90
2023-02-11T03:48:44.296Z,-3.90
2023-02-11T03:51:12.526Z,-3.90
2023-02-11T03:53:40.874Z,-3.80
2023-02-11T03:56:09.299Z,-3.70
2023-02-11T03:58:35.901Z,-3.80
2023-02-11T04:01:02.800Z,-3.70
2023-02-11T04:03:29.560Z,-3.60
2023-02-11T04:05:56.269Z,-3.50
2023-02-11T04:08:23.001Z,-3.50
2023-02-11T04:10:49.638Z,-3.50
2023-02-11T04:13:16.239Z,-3.30
2023-02-11T04:15:42.863Z,-3.30
2023-02-11T04:18:09.448Z,-3.20
2023-02-11T04:20:36.150Z,-3.10
2023-02-11T04:23:03.091Z,-3.10
2023-02-11T04:25:29.702Z,-3.10
2023-02-11T04:27:56.468Z,-3.10
2023-02-11T04:30:23.149Z,-3.00
2023-02-11T04:32:49.737Z,-3.00
2023-02-11T04:35:16.442Z,-2.90
2023-02-11T04:37:43.106Z,-2.90
2023-02-11T04:40:09.950Z,-2.80
2023-02-11T04:42:36.528Z,-2.80
2023-02-11T04:45:03.452Z,-2.70
2023-02-11T04:47:30.056Z,-2.70
2023-02-11T04:49:56.734Z,-2.60
2023-02-11T04:52:23.392Z,-2.60
2023-02-11T04:54:52.756Z,-2.50
2023-02-11T04:57:19.392Z,-2.50
2023-02-11T04:59:46.031Z,-2.50
2023-02-11T05:02:12.606Z,-2.40
2023-02-11T05:04:39.245Z,-2.40
2023-02-11T05:07:05.875Z,-2.30
2023-02-11T05:09:32.506Z,-2.30
2023-02-11T05:11:59.148Z,-2.30
2023-02-11T05:14:25.788Z,-2.30
2023-02-11T05:16:52.441Z,-2.30
2023-02-11T05:19:19.366Z,-2.20
2023-02-11T05:22:01.478Z,-2.30
2023-02-11T05:24:29.794Z,-2.20
2023-02-11T05:26:56.379Z,-2.20
2023-02-11T05:29:22.956Z,-2.20
2023-02-11T05:31:49.655Z,-2.10
2023-02-11T05:34:16.296Z,-2.00
2023-02-11T05:36:42.914Z,-2.00
2023-02-11T05:39:09.544Z,-2.10
2023-02-11T05:41:36.270Z,-2.00
2023-02-11T05:44:02.871Z,-2.00
2023-02-11T05:46:29.636Z,-1.90
2023-02-11T05:48:56.705Z,-1.90
2023-02-11T05:51:25.262Z,-1.90
2023-02-11T05:53:52.026Z,-2.00
2023-02-11T05:56:18.744Z,-2.00
2023-02-11T05:58:45.353Z,-2.00
2023-02-11T06:01:11.998Z,-2.00
2023-02-11T06:03:38.704Z,-1.90
2023-02-11T06:06:05.533Z,-1.90
2023-02-11T06:08:32.157Z,-1.90
2023-02-11T06:10:58.754Z,-1.90
2023-02-11T06:13:25.418Z,-1.80
2023-02-11T06:15:56.056Z,-1.80
2023-02-11T06:18:22.774Z,-1.90
2023-02-11T06:20:49.464Z,-1.80
2023-02-11T06:23:16.207Z,-1.70
2023-02-11T06:25:42.912Z,-1.70
2023-02-11T06:28:10.670Z,-1.60
2023-02-11T06:30:37.758Z,-1.50
2023-02-11T06:33:04.586Z,-1.50
2023-02-11T06:35:31.253Z,-1.50
2023-02-11T06:37:57.870Z,-1.40
2023-02-11T06:40:24.497Z,-1.40
2023-02-11T06:42:51.112Z,-1.30
2023-02-11T06:45:17.903Z,-1.30
2023-02-11T06:47:44.558Z,-1.30
2023-02-11T06:50:13.160Z,-1.30
2023-02-11T06:52:40.179Z,-1.30
2023-02-11T06:55:06.962Z,-1.30
2023-02-11T06:57:33.569Z,-1.20
2023-02-11T07:00:00.184Z,-1.20
2023-02-11T07:02:26.839Z,-1.10
2023-02-11T07:04:53.489Z,-1.10
2023-02-11T07:07:20.153Z,-1.00
2023-02-11T07:09:46.790Z,-1.00
2023-02-11T07:12:13.457Z,-0.90
2023-02-11T07:14:40.417Z,-0.90
2023-02-11T07:17:07.235Z,-0.90
2023-02-11T07:19:33.825Z,-0.80
2023-02-11T07:22:00.445Z,-0.90
2023-02-11T07:24:27.148Z,-0.90
2023-02-11T07:26:53.938Z,-0.80
2023-02-11T07:29:20.606Z,-0.80
2023-02-11T07:31:47.362Z,-0.80
2023-02-11T07:34:14.147Z,-0.60
2023-02-11T07:36:43.628Z,-0.40
2023-02-11T07:39:10.274Z,-0.40
2023-02-11T07:41:38.088Z,-0.10
2023-02-11T07:44:04.991Z,0.20
2023-02-11T07:46:32.158Z,0.40
2023-02-11T07:48:58.795Z,0.70
2023-02-11T07:51:26.814Z,0.70
2023-02-11T07:53:53.778Z,0.60
2023-02-11T07:56:21.727Z,0.50
2023-02-11T07:58:48.779Z,0.60
2023-02-11T08:01:17.198Z,0.70
2023-02-11T08:03:44.202Z,1.30
2023-02-11T08:06:12.676Z,2.00
2023-02-11T08:08:39.590Z,2.50
2023-02-11T08:11:16.600Z,3.00
2023-02-11T08:13:43.580Z,3.30
2023-02-11T08:16:16.865Z,5.20
2023-02-11T08:18:43.574Z,6.00
2023-02-11T08:21:10.553Z,5.40
2023-02-11T08:23:38.226Z,4.90
2023-02-11T08:26:05.736Z,4.30
2023-02-11T08:28:35.195Z,3.70
2023-02-11T08:31:31.419Z,3.50
2023-02-11T08:33:58.196Z,3.40
2023-02-11T08:36:26.685Z,3.40
2023-02-11T08:38:58.674Z,3.20
2023-02-11T08:41:29.524Z,2.70
2023-02-11T08:43:56.196Z,2.60
2023-02-11T08:46:23.002Z,2.60
2023-02-11T08:48:49.855Z,2.60
2023-02-11T08:51:18.257Z,2.80
2023-02-11T08:53:45.569Z,3.00
2023-02-11T08:56:13.579Z,3.40
2023-02-11T08:58:41.071Z,3.40
2023-02-11T09:01:12.256Z,3.80
2023-02-11T09:03:39.219Z,5.70
2023-02-11T09:06:06.784Z,7.10
2023-02-11T09:08:37.010Z,7.50
2023-02-11T09:11:04.004Z,7.30
2023-02-11T09:13:31.231Z,6.70
2023-02-11T09:15:58.366Z,6.30
2023-02-11T09:18:25.074Z,7.00
2023-02-11T09:20:51.911Z,8.50
2023-02-11T09:23:18.729Z,9.60
2023-02-11T09:25:45.317Z,10.10
2023-02-11T09:28:12.010Z,11.60
2023-02-11T09:30:38.855Z,14.00
2023-02-11T09:33:05.607Z,15.50
2023-02-11T09:35:32.772Z,16.40
2023-02-11T09:37:59.418Z,16.90
2023-02-11T09:40:26.040Z,17.00
2023-02-11T09:42:52.985Z,17.40
2023-02-11T09:45:21.516Z,17.50
2023-02-11T09:47:50.741Z,16.80
2023-02-11T09:50:30.009Z,17.10
2023-02-11T09:53:05.075Z,17.50
2023-02-11T09:55:37.952Z,17.90
2023-02-11T09:58:07.510Z,18.30
2023-02-11T10:00:40.025Z,18.80
2023-02-11T10:03:25.764Z,18.20
2023-02-11T10:05:52.345Z,18.60
2023-02-11T10:08:24.950Z,17.90
2023-02-11T10:10:59.848Z,17.20
2023-02-11T10:13:26.587Z,15.50
2023-02-11T10:16:03.047Z,14.40
2023-02-11T10:18:32.723Z,12.30
2023-02-11T10:21:02.100Z,10.50
2023-02-11T10:23:33.884Z,9.90
2023-02-11T10:26:00.710Z,9.20
2023-02-11T10:28:32.753Z,8.50
2023-02-11T10:31:01.520Z,8.20
2023-02-11T10:33:32.639Z,8.10
2023-02-11T10:35:59.572Z,8.00
2023-02-11T10:38:27.723Z,7.80
2023-02-11T10:40:54.452Z,7.50
2023-02-11T10:43:23.630Z,7.40
2023-02-11T10:45:51.630Z,7.60
2023-02-11T10:48:39.142Z,8.60
2023-02-11T10:51:08.951Z,10.20
2023-02-11T10:53:35.804Z,11.60
2023-02-11T10:56:06.075Z,13.00
2023-02-11T10:58:37.091Z,14.80
2023-02-11T11:01:10.214Z,15.90
2023-02-11T11:03:51.959Z,17.00
2023-02-11T11:06:29.044Z,17.10
2023-02-11T11:08:55.757Z,17.60
2023-02-11T11:11:24.057Z,18.10
2023-02-11T11:13:53.457Z,17.60
2023-02-11T11:16:22.094Z,16.60
2023-02-11T11:18:53.156Z,17.30
2023-02-11T11:21:22.620Z,18.00
2023-02-11T11:23:50.896Z,18.10
2023-02-11T11:26:18.330Z,18.40
2023-02-11T11:28:53.431Z,17.60
2023-02-11T11:31:28.562Z,17.10
2023-02-11T11:33:57.535Z,16.80
2023-02-11T11:36:32.027Z,17.30
2023-02-11T11:39:00.522Z,17.80
2023-02-11T11:41:27.151Z,17.90
2023-02-11T11:44:23.007Z,18.00
2023-02-11T11:46:53.481Z,18.00
2023-02-11T11:49:23.335Z,17.60
2023-02-11T11:51:54.781Z,17.20
2023-02-11T11:54:21.763Z,16.70
2023-02-11T11:56:56.149Z,16.90
2023-02-11T11:59:22.857Z,16.70
2023-02-11T12:02:08.717Z,17.20
2023-02-11T12:04:35.342Z,17.00
2023-02-11T12:07:14.376Z,16.80
2023-02-11T12:09:47.053Z,16.90
2023-02-11T12:12:13.690Z,16.90
2023-02-11T12:15:04.213Z,16.60
2023-02-11T12:17:30.806Z,16.10
2023-02-11T12:20:18.010Z,15.90
2023-02-11T12:22:51.253Z,15.60
2023-02-11T12:25:28.465Z,15.40
2023-02-11T12:28:03.683Z,15.30
2023-02-11T12:30:40.786Z,14.90
2023-02-11T12:33:22.548Z,14.50
2023-02-11T12:35:49.196Z,13.70
2023-02-11T12:38:30.425Z,13.20
2023-02-11T12:40:57.056Z,12.90
2023-02-11T12:43:25.213Z,12.40
2023-02-11T12:45:55.503Z,12.40
2023-02-11T12:48:25.462Z,12.30
2023-02-11T12:51:04.644Z,11.90
2023-02-11T12:53:50.134Z,11.70
2023-02-11T12:56:24.147Z,10.70
2023-02-11T12:58:52.525Z,10.70
2023-02-11T13:01:22.537Z,11.10
2023-02-11T13:04:09.260Z,11.20
2023-02-11T13:06:43.502Z,11.60
2023-02-11T13:09:13.045Z,11.70
2023-02-11T13:11:44.174Z,11.70
2023-02-11T13:14:15.275Z,12.00
2023-02-11T13:16:46.180Z,12.00
2023-02-11T13:19:12.846Z,11.80
2023-02-11T13:21:56.051Z,11.90
2023-02-11T13:24:22.657Z,11.90
2023-02-11T13:26:57.444Z,11.80
2023-02-11T13:29:31.460Z,11.90
2023-02-11T13:32:16.242Z,11.70
2023-02-11T13:34:42.874Z,11.80
2023-02-11T13:37:26.439Z,11.70
2023-02-11T13:40:00.742Z,11.80
2023-02-11T13:42:27.942Z,11.90
2023-02-11T13:44:54.935Z,12.00
2023-02-11T13:47:32.510Z,12.10
2023-02-11T13:49:59.976Z,11.90
2023-02-11T13:52:31.023Z,11.80
2023-02-11T13:55:24.108Z,11.60
2023-02-11T13:58:05.843Z,11.60
2023-02-11T14:00:35.399Z,11.50
2023-02-11T14:03:29.877Z,11.50
2023-02-11T14:06:41.804Z,11.50
2023-02-11T14:09:14.475Z,11.50
2023-02-11T14:11:41.589Z,11.60
2023-02-11T14:14:08.288Z,11.60
2023-02-11T14:16:38.266Z,11.90
2023-02-11T14:19:06.116Z,11.60
2023-02-11T14:21:37.966Z,11.50
2023-02-11T14:24:04.998Z,11.50
2023-02-11T14:26:31.716Z,11.30
2023-02-11T14:28:58.309Z,11.30
2023-02-11T14:32:05.739Z,11.10
2023-02-11T14:34:41.620Z,11.30
2023-02-11T14:37:14.375Z,11.10
2023-02-11T14:39:53.422Z,10.60
2023-02-11T14:42:22.445Z,10.70
2023-02-11T14:44:49.951Z,10.50
2023-02-11T14:47:37.140Z,10.80
2023-02-11T14:50:04.828Z,10.80
2023-02-11T14:52:33.219Z,10.40
2023-02-11T14:55:08.906Z,10.40
2023-02-11T14:57:37.586Z,10.50
2023-02-11T15:00:06.830Z,10.50
2023-02-11T15:02:37.864Z,10.30
2023-02-11T15:05:16.221Z,10.40
2023-02-11T15:07:44.405Z,10.30
2023-02-11T15:10:15.883Z,10.20
2023-02-11T15:12:47.681Z,10.00
2023-02-11T15:15:14.941Z,9.80
2023-02-11T15:17:42.159Z,9.80
2023-02-11T15:20:38.228Z,9.80
2023-02-11T15:23:08.602Z,9.70
2023-02-11T15:25:42.348Z,9.70
2023-02-11T15:28:20.898Z,9.70
2023-02-11T15:30:47.728Z,9.50
2023-02-11T15:33:21.727Z,9.50
2023-02-11T15:35:48.444Z,9.50
2023-02-11T15:38:15.218Z,9.50
2023-02-11T15:40:51.088Z,9.50
2023-02-11T15:43:17.840Z,9.50
2023-02-11T15:45:53.084Z,9.50
2023-02-11T15:48:22.715Z,9.50
2023-02-11T15:50:54.176Z,9.50
2023-02-11T15:53:23.909Z,9.50
2023-02-11T15:55:51.641Z,9.50
2023-02-11T15:58:18.760Z,9.40
2023-02-11T16:00:50.618Z,9.20
2023-02-11T16:03:24.994Z,9.10
2023-02-11T16:05:51.960Z,9.10
2023-02-11T16:08:29.753Z,8.90
2023-02-11T16:11:03.193Z,8.80
2023-02-11T16:13:33.558Z,8.60
2023-02-11T16:16:03.994Z,8.40
2023-02-11T16:18:38.730Z,8.30
2023-02-11T16:21:07.647Z,8.10
2023-02-11T16:23:35.695Z,8.00
2023-02-11T16:26:06.967Z,8.00
2023-02-11T16:28:33.764Z,7.90
2023-02-11T16:31:02.584Z,7.70
2023-02-11T16:33:32.300Z,7.60
2023-02-11T16:36:02.044Z,7.50
2023-02-11T16:38:29.424Z,7.40
2023-02-11T16:40:56.009Z,7.30
2023-02-11T16:43:22.778Z,7.30
2023-02-11T16:45:49.773Z,7.30
2023-02-11T16:48:19.170Z,7.20
2023-02-11T16:50:47.622Z,7.20
2023-02-11T16:53:16.362Z,7.20
2023-02-11T16:55:42.969Z,7.20
2023-02-11T16:58:09.593Z,7.30
2023-02-11T17:00:39.435Z,7.30
2023-02-11T17:03:07.283Z,7.20
2023-02-11T17:05:45.755Z,7.20
2023-02-11T17:08:19.971Z,7.20
2023-02-11T17:10:46.617Z,7.30
2023-02-11T17:13:13.334Z,7.30
2023-02-11T17:15:40.092Z,7.30
2023-02-11T17:18:06.765Z,7.30
2023-02-11T17:20:33.420Z,7.20
2023-02-11T17:23:02.205Z,7.10
2023-02-11T17:25:28.877Z,7.10
2023-02-11T17:27:55.572Z,7.00
2023-02-11T17:30:23.091Z,7.00
2023-02-11T17:32:50.140Z,7.00
2023-02-11T17:35:17.020Z,7.00
2023-02-11T17:37:43.676Z,6.90
2023-02-11T17:40:10.708Z,7.00
2023-02-11T17:42:37.404Z,7.00
2023-02-11T17:45:04.240Z,7.00
2023-02-11T17:47:30.864Z,7.10
2023-02-11T17:49:57.608Z,7.10
2023-02-11T17:52:26.582Z,7.10
2023-02-11T17:54:53.667Z,6.90
2023-02-11T17:57:20.450Z,6.90
2023-02-11T17:59:47.322Z,7.00
2023-02-11T18:02:13.932Z,6.90
2023-02-11T18:04:40.779Z,7.00
2023-02-11T18:07:07.684Z,7.00
2023-02-11T18:09:38.391Z,7.00
2023-02-11T18:12:05.612Z,7.00
2023-02-11T18:14:32.330Z,7.00
2023-02-11T18:16:59.123Z,7.00
2023-02-11T18:19:25.916Z,7.00
2023-02-11T18:21:52.527Z,7.00
2023-02-11T18:24:19.263Z,6.90
2023-02-11T18:26:45.944Z,6.90
2023-02-11T18:29:12.558Z,6.90
2023-02-11T18:31:39.674Z,6.80
2023-02-11T18:34:08.060Z,6.80
2023-02-11T18:36:35.460Z,6.60
2023-02-11T18:39:02.364Z,6.50
2023-02-11T18:41:28.993Z,6.40
2023-02-11T18:43:58.371Z,6.30
2023-02-11T18:46:25.130Z,6.20
2023-02-11T18:48:54.989Z,6.10
2023-02-11T18:51:22.678Z,6.10
2023-02-11T18:53:49.284Z,6.00
2023-02-11T18:56:20.360Z,5.90
2023-02-11T18:58:49.157Z,5.90
2023-02-11T19:01:16.006Z,5.80
2023-02-11T19:03:43.212Z,5.80
2023-02-11T19:06:21.184Z,5.70
2023-02-11T19:08:48.253Z,5.60
2023-02-11T19:11:17.864Z,5.60
2023-02-11T19:13:44.758Z,5.60
2023-02-11T19:16:12.507Z,5.50
2023-02-11T19:18:39.127Z,5.50
2023-02-11T19:21:09.307Z,5.50
2023-02-11T19:23:36.262Z,5.50
2023-02-11T19:26:04.599Z,5.40
2023-02-11T19:28:32.024Z,5.50
2023-02-11T19:31:04.639Z,5.50
2023-02-11T19:33:31.364Z,5.50
2023-02-11T19:36:05.176Z,5.50
2023-02-11T19:38:31.871Z,5.40
2023-02-11T19:40:58.763Z,5.50
2023-02-11T19:43:25.808Z,5.50
2023-02-11T19:45:55.770Z,5.40
2023-02-11T19:48:22.691Z,5.30
2023-02-11T19:50:49.319Z,5.30
2023-02-11T19:53:16.094Z,5.40
2023-02-11T19:55:42.764Z,5.40
2023-02-11T19:58:09.354Z,5.40
2023-02-11T20:00:36.036Z,5.40
2023-02-11T20:03:02.738Z,5.30
2023-02-11T20:05:29.339Z,5.40
2023-02-11T20:07:55.946Z,5.30
2023-02-11T20:10:23.389Z,5.30
2023-02-11T20:12:50.096Z,5.20
2023-02-11T20:15:16.742Z,5.20
2023-02-11T20:17:43.361Z,5.10
2023-02-11T20:20:10.421Z,5.00
2023-02-11T20:22:37.031Z,4.90
2023-02-11T20:25:03.691Z,4.70
2023-02-11T20:27:32.204Z,4.60
2023-02-11T20:29:58.800Z,4.30
2023-02-11T20:32:25.504Z,4.30
2023-02-11T20:34:52.637Z,4.20
2023-02-11T20:37:22.194Z,4.10
2023-02-11T20:39:50.426Z,4.00
2023-02-11T20:42:17.109Z,3.90
2023-02-11T20:44:43.918Z,3.90
2023-02-11T20:47:11.712Z,3.80
2023-02-11T20:49:38.367Z,3.70
2023-02-11T20:52:05.059Z,3.60
2023-02-11T20:54:31.782Z,3.50
2023-02-11T20:56:59.742Z,3.50
2023-02-11T20:59:26.599Z,3.50
2023-02-11T21:01:55.491Z,3.50
2023-02-11T21:04:26.591Z,3.40
2023-02-11T21:06:54.488Z,3.30
2023-02-11T21:09:23.813Z,3.30
2023-02-11T21:11:54.331Z,3.30
2023-02-11T21:14:22.253Z,3.30
2023-02-11T21:16:49.364Z,3.30
2023-02-11T21:19:16.766Z,3.40
2023-02-11T21:21:43.437Z,3.40
2023-02-11T21:24:10.755Z,3.40
2023-02-11T21:26:37.681Z,3.40
2023-02-11T21:29:08.133Z,3.50
2023-02-11T21:31:38.232Z,3.50
2023-02-11T21:34:05.559Z,3.50
2023-02-11T21:36:32.340Z,3.30
2023-02-11T21:39:00.171Z,3.50
2023-02-11T21:41:27.409Z,3.50
2023-02-11T21:43:54.098Z,3.60
2023-02-11T21:46:22.023Z,3.70
2023-02-11T21:48:48.769Z,3.80
2023-02-11T21:51:16.684Z,3.80
2023-02-11T21:53:43.486Z,3.70
2023-02-11T21:56:11.795Z,3.70
2023-02-11T21:58:38.837Z,3.70
2023-02-11T22:01:11.587Z,3.70
2023-02-11T22:03:38.257Z,3.80
2023-02-11T22:06:09.177Z,3.80
2023-02-11T22:08:36.060Z,3.80
2023-02-11T22:11:03.920Z,3.70
2023-02-11T22:13:30.625Z,3.70
2023-02-11T22:15:58.344Z,3.70
2023-02-11T22:18:24.970Z,3.60
2023-02-11T22:21:01.332Z,3.70
2023-02-11T22:23:28.487Z,3.70
2023-02-11T22:25:55.670Z,3.70
2023-02-11T22:28:22.575Z,3.70
2023-02-11T22:30:53.089Z,3.70
2023-02-11T22:33:19.768Z,3.70
2023-02-11T22:35:46.507Z,3.80
2023-02-11T22:38:13.118Z,3.80
2023-02-11T22:40:43.181Z,3.90
2023-02-11T22:43:10.412Z,3.80
2023-02-11T22:45:37.153Z,3.80
2023-02-11T22:48:03.974Z,3.90
2023-02-11T22:50:30.604Z,3.90
2023-02-11T22:52:57.284Z,3.90
2023-02-11T22:55:23.871Z,3.90
2023-02-11T22:57:50.482Z,3.90
2023-02-11T23:00:17.457Z,3.90
2023-02-11T23:02:44.123Z,3.90
2023-02-11T23:05:10.782Z,3.90
2023-02-11T23:07:37.434Z,3.90
2023-02-11T23:10:04.356Z,3.90
2023-02-11T23:12:30.995Z,3.90
2023-02-11T23:14:57.648Z,4.00
2023-02-11T23:17:24.602Z,4.00
2023-02-11T23:19:51.422Z,4.00
2023-02-11T23:22:18.021Z,3.90
2023-02-11T23:24:44.650Z,4.00
2023-02-11T23:27:11.346Z,3.90
2023-02-11T23:29:37.970Z,4.00
2023-02-11T23:32:04.830Z,4.00
2023-02-11T23:34:31.441Z,4.00
2023-02-11T23:36:59.264Z,4.00
2023-02-11T23:39:26.114Z,3.90
2023-02-11T23:41:58.847Z,3.90
2023-02-11T23:44:26.208Z,4.00
2023-02-11T23:46:52.879Z,4.00
2023-02-11T23:49:19.563Z,3.90
2023-02-11T23:51:46.265Z,3.90
2023-02-11T23:54:13.806Z,3.90
2023-02-11T23:56:42.316Z,3.80
2023-02-11T23:59:08.988Z,3.80
